createdAt,value
2023-05-09T00:00:00.422Z,61.09
2023-05-09T00:02:28.623Z,61.37
2023-05-09T00:04:56.745Z,60.99
2023-05-09T00:07:24.105Z,61.12
2023-05-09T00:09:51.526Z,60.49
2023-05-09T00:12:18.891Z,60.23
2023-05-09T00:14:51.540Z,60.23
2023-05-09T00:17:19.040Z,59.96
2023-05-09T00:19:46.393Z,60.30
2023-05-09T00:22:13.806Z,59.87
2023-05-09T00:24:41.548Z,59.96
2023-05-09T00:27:09.059Z,60.04
2023-05-09T00:29:36.839Z,59.55
2023-05-09T00:32:06.199Z,59.72
2023-05-09T00:34:33.802Z,59.29
2023-05-09T00:37:01.583Z,59.76
2023-05-09T00:39:29.015Z,59.88
2023-05-09T00:41:57.297Z,59.49
2023-05-09T00:44:24.945Z,59.69
2023-05-09T00:46:52.403Z,59.39
2023-05-09T00:49:21.882Z,59.21
2023-05-09T00:51:50.002Z,59.36
2023-05-09T00:54:17.513Z,59.68
2023-05-09T00:56:45.769Z,59.15
2023-05-09T00:59:13.245Z,59.25
2023-05-09T01:01:40.904Z,59.60
2023-05-09T01:04:08.499Z,59.26
2023-05-09T01:06:46.237Z,59.39
2023-05-09T01:09:21.796Z,59.28
2023-05-09T01:11:57.016Z,59.85
2023-05-09T01:14:34.398Z,59.28
2023-05-09T01:17:08.989Z,59.22
2023-05-09T01:19:52.947Z,60.35
2023-05-09T01:22:26.937Z,60.76
2023-05-09T01:25:14.061Z,61.10
2023-05-09T01:27:51.920Z,60.60
2023-05-09T01:30:21.453Z,60.31
2023-05-09T01:32:52.318Z,60.01
2023-05-09T01:35:22.250Z,60.44
2023-05-09T01:37:51.868Z,60.88
2023-05-09T01:40:21.719Z,61.10
2023-05-09T01:42:53.590Z,60.71
2023-05-09T01:45:24.306Z,60.99
2023-05-09T01:47:52.244Z,60.46
2023-05-09T01:50:20.761Z,61.03
2023-05-09T01:52:50.488Z,61.43
2023-05-09T01:55:19.887Z,61.33
2023-05-09T01:57:48.688Z,61.07
2023-05-09T02:00:17.039Z,61.45
2023-05-09T02:02:46.575Z,61.25
2023-05-09T02:05:16.489Z,61.35
2023-05-09T02:07:45.806Z,61.08
2023-05-09T02:10:14.017Z,61.34
2023-05-09T02:12:41.477Z,62.16
2023-05-09T02:15:09.746Z,61.68
2023-05-09T02:17:37.222Z,61.92
2023-05-09T02:20:08.678Z,61.95
2023-05-09T02:22:36.657Z,61.79
2023-05-09T02:25:05.003Z,61.60
2023-05-09T02:27:34.575Z,62.00
2023-05-09T02:30:07.349Z,61.92
2023-05-09T02:32:36.854Z,61.65
2023-05-09T02:35:07.338Z,61.79
2023-05-09T02:37:35.086Z,61.78
2023-05-09T02:40:02.648Z,61.46
2023-05-09T02:42:30.192Z,62.10
2023-05-09T02:44:57.636Z,61.91
2023-05-09T02:47:25.689Z,61.80
2023-05-09T02:49:53.374Z,62.39
2023-05-09T02:52:22.194Z,62.58
2023-05-09T02:54:49.604Z,62.05
2023-05-09T02:57:17.221Z,62.00
2023-05-09T02:59:44.579Z,62.22
2023-05-09T03:02:12.147Z,62.66
2023-05-09T03:04:39.513Z,62.32
2023-05-09T03:07:06.907Z,62.51
2023-05-09T03:09:35.889Z,62.16
2023-05-09T03:12:03.752Z,62.39
2023-05-09T03:14:31.366Z,62.25
2023-05-09T03:16:58.776Z,62.70
2023-05-09T03:19:26.278Z,62.26
2023-05-09T03:21:53.709Z,62.05
2023-05-09T03:24:21.106Z,62.11
2023-05-09T03:26:49.813Z,62.32
2023-05-09T03:29:17.223Z,62.37
2023-05-09T03:31:44.652Z,62.03
2023-05-09T03:34:15.192Z,63.16
2023-05-09T03:36:43.488Z,63.02
2023-05-09T03:39:10.984Z,63.25
2023-05-09T03:41:38.598Z,63.23
2023-05-09T03:44:07.819Z,63.07
2023-05-09T03:46:35.298Z,63.19
2023-05-09T03:49:03.395Z,63.88
2023-05-09T03:51:32.251Z,63.36
2023-05-09T03:54:00.046Z,63.54
2023-05-09T03:56:27.562Z,63.82
2023-05-09T03:58:54.937Z,63.79
2023-05-09T04:01:23.721Z,62.96
2023-05-09T04:03:52.058Z,62.93
2023-05-09T04:06:19.725Z,62.57
2023-05-09T04:08:47.106Z,62.43
2023-05-09T04:11:14.538Z,61.93
2023-05-09T04:13:42.003Z,61.84
2023-05-09T04:16:09.474Z,61.72
2023-05-09T04:18:39.863Z,61.23
2023-05-09T04:21:07.315Z,60.73
2023-05-09T04:23:34.697Z,60.36
2023-05-09T04:26:02.392Z,59.78
2023-05-09T04:28:29.759Z,59.87
2023-05-09T04:30:57.212Z,59.01
2023-05-09T04:33:25.031Z,57.91
2023-05-09T04:35:54.993Z,57.44
2023-05-09T04:38:22.630Z,54.28
2023-05-09T04:40:50.068Z,48.08
2023-05-09T04:43:17.696Z,46.45
2023-05-09T04:45:46.095Z,45.16
2023-05-09T04:48:13.463Z,43.17
2023-05-09T04:50:41.909Z,44.33
2023-05-09T04:53:10.960Z,46.21
2023-05-09T04:55:38.362Z,48.28
2023-05-09T04:58:06.085Z,49.15
2023-05-09T05:00:33.474Z,49.58
2023-05-09T05:03:00.930Z,48.90
2023-05-09T05:05:28.577Z,48.69
2023-05-09T05:07:56.244Z,49.43
2023-05-09T05:10:24.956Z,50.70
2023-05-09T05:12:52.403Z,50.58
2023-05-09T05:15:20.366Z,50.41
2023-05-09T05:17:47.893Z,50.33
2023-05-09T05:20:15.317Z,50.46
2023-05-09T05:22:42.712Z,49.66
2023-05-09T05:25:10.514Z,50.04
2023-05-09T05:27:39.252Z,51.25
2023-05-09T05:30:07.786Z,50.70
2023-05-09T05:32:35.209Z,50.15
2023-05-09T05:35:04.793Z,50.04
2023-05-09T05:37:32.760Z,49.87
2023-05-09T05:40:00.191Z,49.94
2023-05-09T05:42:27.622Z,49.26
2023-05-09T05:44:56.365Z,50.80
2023-05-09T05:47:23.754Z,50.81
2023-05-09T05:49:51.876Z,49.27
2023-05-09T05:52:19.249Z,49.28
2023-05-09T05:54:46.685Z,49.06
2023-05-09T05:57:14.087Z,49.80
2023-05-09T05:59:41.562Z,49.84
2023-05-09T06:02:10.405Z,48.56
2023-05-09T06:04:37.795Z,48.91
2023-05-09T06:07:05.280Z,47.83
2023-05-09T06:09:32.717Z,48.09
2023-05-09T06:12:00.136Z,48.21
2023-05-09T06:14:27.542Z,48.22
2023-05-09T06:16:55.558Z,47.72
2023-05-09T06:19:24.304Z,46.85
2023-05-09T06:21:51.847Z,46.71
2023-05-09T06:24:31.876Z,46.54
2023-05-09T06:27:02.975Z,46.20
2023-05-09T06:29:30.392Z,46.38
2023-05-09T06:31:57.856Z,47.49
2023-05-09T06:34:26.632Z,45.62
2023-05-09T06:36:54.051Z,45.30
2023-05-09T06:39:21.491Z,45.33
2023-05-09T06:41:48.930Z,46.14
2023-05-09T06:44:16.319Z,46.14
2023-05-09T06:46:43.793Z,44.91
2023-05-09T06:49:13.718Z,45.44
2023-05-09T06:51:42.486Z,44.66
2023-05-09T06:54:09.972Z,44.55
2023-05-09T06:56:37.650Z,44.67
2023-05-09T06:59:05.342Z,44.54
2023-05-09T07:01:32.844Z,44.45
2023-05-09T07:04:00.294Z,44.25
2023-05-09T07:06:27.673Z,44.02
2023-05-09T07:08:56.758Z,44.47
2023-05-09T07:11:24.192Z,43.32
2023-05-09T07:13:51.682Z,42.80
2023-05-09T07:16:19.194Z,43.44
2023-05-09T07:18:46.571Z,42.84
2023-05-09T07:21:13.953Z,43.12
2023-05-09T07:23:41.340Z,42.85
2023-05-09T07:26:10.432Z,42.63
2023-05-09T07:28:37.843Z,42.29
2023-05-09T07:31:07.094Z,42.09
2023-05-09T07:33:35.070Z,42.56
2023-05-09T07:36:06.909Z,42.15
2023-05-09T07:38:34.887Z,41.52
2023-05-09T07:41:02.912Z,42.08
2023-05-09T07:43:32.391Z,41.53
2023-05-09T07:46:00.724Z,41.39
2023-05-09T07:48:28.237Z,40.88
2023-05-09T07:50:55.919Z,40.93
2023-05-09T07:53:23.365Z,41.05
2023-05-09T07:55:50.745Z,40.30
2023-05-09T07:58:18.160Z,40.80
2023-05-09T08:00:46.919Z,40.58
2023-05-09T08:03:14.500Z,41.88
2023-05-09T08:05:41.996Z,40.10
2023-05-09T08:08:09.722Z,39.74
2023-05-09T08:10:37.124Z,39.42
2023-05-09T08:13:04.551Z,39.43
2023-05-09T08:15:32.221Z,39.56
2023-05-09T08:18:00.950Z,39.79
2023-05-09T08:20:28.498Z,40.12
2023-05-09T08:22:55.902Z,38.86
2023-05-09T08:25:23.311Z,38.29
2023-05-09T08:27:52.367Z,39.79
2023-05-09T08:30:20.506Z,37.94
2023-05-09T08:32:47.938Z,37.26
2023-05-09T08:35:16.997Z,36.72
2023-05-09T08:37:45.324Z,36.65
2023-05-09T08:40:13.182Z,36.43
2023-05-09T08:42:41.419Z,38.35
2023-05-09T08:45:10.980Z,37.51
2023-05-09T08:47:39.973Z,36.54
2023-05-09T08:50:09.372Z,36.63
2023-05-09T08:52:38.510Z,36.02
2023-05-09T08:55:06.557Z,37.46
2023-05-09T08:57:35.689Z,36.95
2023-05-09T09:00:05.979Z,36.16
2023-05-09T09:02:33.702Z,35.11
2023-05-09T09:05:02.302Z,35.04
2023-05-09T09:07:31.466Z,35.31
2023-05-09T09:10:01.457Z,36.48
2023-05-09T09:12:28.938Z,35.67
2023-05-09T09:14:57.687Z,36.44
2023-05-09T09:17:28.092Z,36.70
2023-05-09T09:19:59.084Z,35.73
2023-05-09T09:22:33.852Z,36.23
2023-05-09T09:25:02.650Z,35.50
2023-05-09T09:27:30.276Z,35.65
2023-05-09T09:30:07.442Z,36.06
2023-05-09T09:32:35.720Z,35.48
2023-05-09T09:35:07.718Z,36.02
2023-05-09T09:37:36.011Z,34.79
2023-05-09T09:40:05.377Z,35.81
2023-05-09T09:42:41.931Z,34.96
2023-05-09T09:45:13.601Z,35.89
2023-05-09T09:47:41.693Z,35.16
2023-05-09T09:50:13.900Z,34.99
2023-05-09T09:52:44.140Z,35.07
2023-05-09T09:55:13.679Z,34.64
2023-05-09T09:57:44.055Z,34.43
2023-05-09T10:00:13.207Z,34.33
2023-05-09T10:02:51.664Z,34.27
2023-05-09T10:05:23.340Z,35.70
2023-05-09T10:07:58.901Z,35.52
2023-05-09T10:10:31.981Z,34.81
2023-05-09T10:13:05.293Z,35.03
2023-05-09T10:15:41.273Z,34.51
2023-05-09T10:18:19.814Z,34.67
2023-05-09T10:20:48.210Z,33.43
2023-05-09T10:23:18.192Z,35.30
2023-05-09T10:25:52.587Z,33.20
2023-05-09T10:28:25.152Z,33.70
2023-05-09T10:30:58.364Z,33.11
2023-05-09T10:33:31.695Z,33.10
2023-05-09T10:36:01.659Z,32.97
2023-05-09T10:38:29.690Z,33.17
2023-05-09T10:40:59.544Z,33.24
2023-05-09T10:43:27.264Z,33.00
2023-05-09T10:45:55.302Z,33.81
2023-05-09T10:48:24.136Z,32.88
2023-05-09T10:50:52.470Z,33.55
2023-05-09T10:53:21.634Z,32.72
2023-05-09T10:55:51.294Z,32.50
2023-05-09T10:58:26.216Z,33.03
2023-05-09T11:00:57.283Z,32.46
2023-05-09T11:03:25.887Z,32.28
2023-05-09T11:05:55.296Z,31.58
2023-05-09T11:08:25.157Z,31.88
2023-05-09T11:10:53.151Z,31.36
2023-05-09T11:13:24.429Z,31.15
2023-05-09T11:16:09.266Z,31.25
2023-05-09T11:18:51.084Z,30.80
2023-05-09T11:21:20.328Z,31.69
2023-05-09T11:23:49.379Z,30.49
2023-05-09T11:26:17.706Z,31.63
2023-05-09T11:28:54.563Z,30.59
2023-05-09T11:31:22.183Z,30.44
2023-05-09T11:33:55.028Z,30.54
2023-05-09T11:36:29.947Z,31.66
2023-05-09T11:39:06.726Z,30.92
2023-05-09T11:41:41.741Z,30.95
2023-05-09T11:44:16.537Z,30.85
2023-05-09T11:46:44.072Z,30.76
2023-05-09T11:49:12.411Z,31.04
2023-05-09T11:51:40.562Z,30.06
2023-05-09T11:54:08.995Z,30.31
2023-05-09T11:56:37.225Z,31.07
2023-05-09T11:59:05.086Z,30.09
2023-05-09T12:01:33.897Z,30.02
2023-05-09T12:04:03.716Z,29.73
2023-05-09T12:06:32.915Z,30.18
2023-05-09T12:09:00.372Z,29.99
2023-05-09T12:11:32.121Z,29.24
2023-05-09T12:13:59.602Z,31.01
2023-05-09T12:16:27.067Z,30.30
2023-05-09T12:18:55.852Z,30.42
2023-05-09T12:21:23.606Z,30.01
2023-05-09T12:23:52.506Z,29.10
2023-05-09T12:26:23.365Z,29.87
2023-05-09T12:28:51.466Z,29.84
2023-05-09T12:31:19.208Z,30.14
2023-05-09T12:33:47.144Z,30.51
2023-05-09T12:36:19.997Z,29.79
2023-05-09T12:38:54.104Z,29.66
2023-05-09T12:43:57.798Z,29.12
2023-05-09T12:46:25.647Z,28.98
2023-05-09T12:48:53.141Z,29.77
2023-05-09T12:51:22.864Z,29.27
2023-05-09T12:53:50.401Z,29.64
2023-05-09T12:56:19.382Z,28.92
2023-05-09T12:58:51.212Z,29.83
2023-05-09T13:01:18.971Z,29.81
2023-05-09T13:03:52.283Z,29.86
2023-05-09T13:06:21.008Z,30.87
2023-05-09T13:09:01.255Z,30.13
2023-05-09T13:11:29.048Z,29.60
2023-05-09T13:13:56.481Z,30.43
2023-05-09T13:16:23.978Z,30.37
2023-05-09T13:18:51.472Z,29.19
2023-05-09T13:21:19.281Z,29.25
2023-05-09T13:23:46.786Z,29.30
2023-05-09T13:26:15.652Z,29.51
2023-05-09T13:28:43.092Z,29.46
2023-05-09T13:31:10.681Z,29.70
2023-05-09T13:33:38.349Z,29.23
2023-05-09T13:36:07.162Z,29.06
2023-05-09T13:38:38.581Z,30.85
2023-05-09T13:41:06.011Z,30.25
2023-05-09T13:43:34.811Z,30.08
2023-05-09T13:46:02.553Z,29.86
2023-05-09T13:48:29.949Z,30.41
2023-05-09T13:50:59.959Z,30.58
2023-05-09T13:53:27.508Z,30.88
2023-05-09T13:55:54.954Z,30.42
2023-05-09T13:58:22.668Z,30.84
2023-05-09T14:00:51.508Z,31.10
2023-05-09T14:03:18.958Z,31.05
2023-05-09T14:05:46.635Z,31.74
2023-05-09T14:08:14.126Z,31.58
2023-05-09T14:10:41.666Z,31.50
2023-05-09T14:13:09.070Z,31.81
2023-05-09T14:15:36.562Z,32.55
2023-05-09T14:18:05.474Z,32.46
2023-05-09T14:20:34.892Z,32.33
2023-05-09T14:23:02.343Z,32.06
2023-05-09T14:25:29.715Z,32.07
2023-05-09T14:27:58.013Z,31.92
2023-05-09T14:30:26.542Z,32.35
2023-05-09T14:32:54.013Z,32.76
2023-05-09T14:35:23.074Z,31.89
2023-05-09T14:37:50.504Z,32.79
2023-05-09T14:40:18.071Z,32.66
2023-05-09T14:42:46.043Z,32.78
2023-05-09T14:45:15.275Z,32.39
2023-05-09T14:47:42.763Z,32.19
2023-05-09T14:50:15.660Z,31.91
2023-05-09T14:52:44.898Z,32.33
2023-05-09T14:55:12.752Z,33.40
2023-05-09T14:57:40.180Z,33.18
2023-05-09T15:00:20.390Z,33.20
2023-05-09T15:02:48.440Z,32.42
2023-05-09T15:05:16.689Z,32.36
2023-05-09T15:07:45.594Z,32.05
2023-05-09T15:10:13.440Z,31.82
2023-05-09T15:12:41.040Z,32.49
2023-05-09T15:15:16.479Z,32.36
2023-05-09T15:17:44.231Z,33.10
2023-05-09T15:20:13.404Z,32.34
2023-05-09T15:22:40.963Z,32.15
2023-05-09T15:25:10.549Z,32.44
2023-05-09T15:27:38.397Z,32.33
2023-05-09T15:30:07.028Z,32.54
2023-05-09T15:32:36.100Z,32.83
2023-05-09T15:35:03.671Z,32.88
2023-05-09T15:37:31.026Z,33.19
2023-05-09T15:39:58.848Z,33.75
2023-05-09T15:42:28.102Z,33.65
2023-05-09T15:44:55.594Z,33.62
2023-05-09T15:47:23.058Z,33.91
2023-05-09T15:49:50.484Z,33.79
2023-05-09T15:52:18.019Z,33.91
2023-05-09T15:54:45.874Z,33.48
2023-05-09T15:57:13.477Z,33.79
2023-05-09T15:59:42.171Z,34.30
2023-05-09T16:02:10.319Z,34.51
2023-05-09T16:04:38.371Z,34.17
2023-05-09T16:07:06.027Z,34.43
2023-05-09T16:09:33.760Z,34.27
2023-05-09T16:12:04.836Z,35.06
2023-05-09T16:14:32.474Z,35.22
2023-05-09T16:17:02.538Z,35.23
2023-05-09T16:19:30.094Z,35.69
2023-05-09T16:21:57.511Z,35.35
2023-05-09T16:24:25.303Z,35.24
2023-05-09T16:26:52.698Z,35.24
2023-05-09T16:29:20.254Z,35.25
2023-05-09T16:31:47.986Z,35.62
2023-05-09T16:34:16.720Z,35.36
2023-05-09T16:36:46.348Z,35.13
2023-05-09T16:39:13.827Z,35.51
2023-05-09T16:41:41.202Z,35.76
2023-05-09T16:44:09.064Z,36.20
2023-05-09T16:46:36.442Z,35.62
2023-05-09T16:49:04.160Z,35.64
2023-05-09T16:51:32.870Z,36.03
2023-05-09T16:54:00.232Z,36.21
2023-05-09T16:56:30.453Z,36.38
2023-05-09T16:58:57.811Z,36.38
2023-05-09T17:01:25.277Z,36.56
2023-05-09T17:03:52.808Z,36.19
2023-05-09T17:06:20.236Z,36.55
2023-05-09T17:08:49.492Z,36.75
2023-05-09T17:11:16.957Z,36.60
2023-05-09T17:13:44.333Z,37.39
2023-05-09T17:16:11.768Z,36.98
2023-05-09T17:18:39.219Z,37.11
2023-05-09T17:21:06.793Z,37.05
2023-05-09T17:23:34.178Z,37.05
2023-05-09T17:26:03.774Z,37.11
2023-05-09T17:28:31.172Z,36.04
2023-05-09T17:30:59.158Z,35.49
2023-05-09T17:33:26.738Z,35.36
2023-05-09T17:35:54.544Z,35.00
2023-05-09T17:38:21.974Z,34.98
2023-05-09T17:40:49.507Z,35.56
2023-05-09T17:43:18.206Z,35.52
2023-05-09T17:45:46.230Z,35.88
2023-05-09T17:48:14.290Z,36.28
2023-05-09T17:50:42.097Z,36.35
2023-05-09T17:53:09.922Z,35.94
2023-05-09T17:55:37.382Z,35.94
2023-05-09T17:58:04.796Z,35.92
2023-05-09T18:00:33.490Z,35.73
2023-05-09T18:03:03.665Z,36.00
2023-05-09T18:05:31.153Z,36.34
2023-05-09T18:08:00.780Z,36.63
2023-05-09T18:10:28.875Z,37.00
2023-05-09T18:12:56.533Z,37.36
2023-05-09T18:15:25.394Z,37.42
2023-05-09T18:17:54.786Z,37.68
2023-05-09T18:20:22.409Z,38.06
2023-05-09T18:22:49.786Z,37.73
2023-05-09T18:25:17.252Z,38.59
2023-05-09T18:27:44.696Z,38.76
2023-05-09T18:30:12.905Z,38.45
2023-05-09T18:32:40.874Z,39.03
2023-05-09T18:35:10.519Z,39.07
2023-05-09T18:37:39.663Z,39.53
2023-05-09T18:40:13.826Z,40.09
2023-05-09T18:42:41.569Z,40.22
2023-05-09T18:45:09.930Z,40.34
2023-05-09T18:47:37.787Z,40.76
2023-05-09T18:50:06.992Z,41.29
2023-05-09T18:52:37.669Z,41.13
2023-05-09T18:55:06.070Z,41.51
2023-05-09T18:57:33.840Z,41.71
2023-05-09T19:00:04.681Z,41.86
2023-05-09T19:02:32.051Z,42.26
2023-05-09T19:05:00.690Z,42.24
2023-05-09T19:07:29.145Z,42.45
2023-05-09T19:09:57.854Z,42.49
2023-05-09T19:12:25.441Z,42.46
2023-05-09T19:14:52.872Z,42.67
2023-05-09T19:17:21.298Z,42.89
2023-05-09T19:19:48.914Z,42.71
2023-05-09T19:22:16.319Z,42.89
2023-05-09T19:24:43.680Z,43.31
2023-05-09T19:27:12.423Z,43.76
2023-05-09T19:29:39.860Z,43.53
2023-05-09T19:32:07.377Z,43.85
2023-05-09T19:34:34.817Z,43.74
2023-05-09T19:37:02.196Z,43.91
2023-05-09T19:39:29.797Z,43.68
2023-05-09T19:41:59.718Z,44.21
2023-05-09T19:44:30.225Z,44.22
2023-05-09T19:46:58.462Z,44.52
2023-05-09T19:49:26.842Z,44.82
2023-05-09T19:51:54.200Z,44.55
2023-05-09T19:54:24.547Z,45.21
2023-05-09T19:56:51.938Z,45.02
2023-05-09T19:59:19.331Z,45.29
2023-05-09T20:01:48.128Z,45.07
2023-05-09T20:04:16.400Z,45.51
2023-05-09T20:06:43.813Z,45.46
2023-05-09T20:09:11.271Z,45.45
2023-05-09T20:11:38.644Z,45.71
2023-05-09T20:14:06.017Z,45.83
2023-05-09T20:16:36.716Z,45.78
2023-05-09T20:19:07.537Z,45.76
2023-05-09T20:21:34.916Z,45.89
2023-05-09T20:24:02.679Z,46.48
2023-05-09T20:26:30.156Z,46.61
2023-05-09T20:29:01.249Z,46.72
2023-05-09T20:31:29.142Z,46.99
2023-05-09T20:33:57.460Z,46.69
2023-05-09T20:36:26.612Z,47.22
2023-05-09T20:38:54.083Z,47.08
2023-05-09T20:41:23.553Z,47.28
2023-05-09T20:43:51.131Z,46.84
2023-05-09T20:46:18.675Z,47.27
2023-05-09T20:48:46.465Z,47.33
2023-05-09T20:51:13.815Z,47.51
2023-05-09T20:53:42.566Z,47.56
2023-05-09T20:56:09.974Z,47.71
2023-05-09T20:58:37.351Z,47.88
2023-05-09T21:01:04.773Z,47.66
2023-05-09T21:03:32.322Z,47.69
2023-05-09T21:05:59.709Z,47.60
2023-05-09T21:08:27.145Z,47.83
2023-05-09T21:10:55.941Z,47.83
2023-05-09T21:13:23.734Z,48.23
2023-05-09T21:15:51.230Z,48.42
2023-05-09T21:18:18.620Z,48.34
2023-05-09T21:20:46.074Z,48.25
2023-05-09T21:23:14.275Z,48.45
2023-05-09T21:25:41.708Z,48.92
2023-05-09T21:28:10.755Z,48.31
2023-05-09T21:30:38.133Z,48.22
2023-05-09T21:33:05.590Z,48.50
2023-05-09T21:35:32.988Z,47.95
2023-05-09T21:38:00.377Z,47.79
2023-05-09T21:40:27.766Z,48.19
2023-05-09T21:42:55.138Z,47.99
2023-05-09T21:45:24.186Z,48.34
2023-05-09T21:47:51.691Z,48.40
2023-05-09T21:50:19.515Z,48.55
2023-05-09T21:52:47.044Z,48.61
2023-05-09T21:55:14.415Z,48.53
2023-05-09T21:57:42.086Z,48.54
2023-05-09T22:00:14.252Z,49.05
2023-05-09T22:02:43.528Z,49.24
2023-05-09T22:05:11.493Z,49.24
2023-05-09T22:07:39.180Z,49.35
2023-05-09T22:10:07.672Z,49.33
2023-05-09T22:12:35.070Z,49.50
2023-05-09T22:15:02.959Z,49.77
2023-05-09T22:17:30.478Z,49.57
2023-05-09T22:19:59.154Z,49.41
2023-05-09T22:22:27.206Z,49.47
2023-05-09T22:24:54.593Z,49.76
2023-05-09T22:27:22.071Z,49.52
2023-05-09T22:29:49.543Z,49.51
2023-05-09T22:32:17.044Z,49.69
2023-05-09T22:34:47.462Z,49.74
2023-05-09T22:37:16.169Z,49.88
2023-05-09T22:39:43.589Z,49.78
2023-05-09T22:42:11.298Z,50.01
2023-05-09T22:44:39.344Z,49.91
2023-05-09T22:47:07.893Z,49.57
2023-05-09T22:49:35.431Z,50.03
2023-05-09T22:52:03.163Z,50.08
2023-05-09T22:54:31.898Z,50.29
2023-05-09T22:56:59.268Z,50.88
2023-05-09T22:59:27.061Z,50.26
2023-05-09T23:01:54.479Z,50.51
2023-05-09T23:04:22.089Z,50.97
2023-05-09T23:06:49.450Z,50.82
2023-05-09T23:09:16.868Z,50.69
2023-05-09T23:11:45.621Z,50.86
2023-05-09T23:14:13.001Z,50.85
2023-05-09T23:16:40.454Z,50.42
2023-05-09T23:19:07.829Z,50.67
2023-05-09T23:21:35.199Z,51.23
2023-05-09T23:24:02.624Z,50.64
2023-05-09T23:26:30.028Z,50.73
2023-05-09T23:28:58.701Z,51.02
2023-05-09T23:31:26.122Z,50.75
2023-05-09T23:33:53.521Z,51.19
2023-05-09T23:36:20.857Z,51.11
2023-05-09T23:38:48.298Z,50.94
2023-05-09T23:41:15.682Z,51.42
2023-05-09T23:43:43.122Z,51.19
2023-05-09T23:46:11.848Z,51.39
2023-05-09T23:48:39.330Z,51.38
2023-05-09T23:51:06.877Z,51.40
2023-05-09T23:53:37.061Z,51.18
2023-05-09T23:56:04.881Z,51.24
2023-05-09T23:58:32.285Z,51.46
